地図

経路データ

SID SEASON NUMBER BASIN SUBBASIN NAME ISO_TIME NATURE LAT LON WMO_WIND WMO_PRES WMO_AGENCY TRACK_TYPE DIST2LAND LANDFALL IFLAG USA_AGENCY USA_ATCF_ID USA_LAT USA_LON USA_RECORD USA_STATUS USA_WIND USA_PRES USA_SSHS USA_R34_NE USA_R34_SE USA_R34_SW USA_R34_NW USA_R50_NE USA_R50_SE USA_R50_SW USA_R50_NW USA_R64_NE USA_R64_SE USA_R64_SW USA_R64_NW USA_POCI USA_ROCI USA_RMW USA_EYE TOKYO_LAT TOKYO_LON TOKYO_GRADE TOKYO_WIND TOKYO_PRES TOKYO_R50_DIR TOKYO_R50_LONG TOKYO_R50_SHORT TOKYO_R30_DIR TOKYO_R30_LONG TOKYO_R30_SHORT TOKYO_LAND CMA_LAT CMA_LON CMA_CAT CMA_WIND CMA_PRES HKO_LAT HKO_LON HKO_CAT HKO_WIND HKO_PRES NEWDELHI_LAT NEWDELHI_LON NEWDELHI_GRADE NEWDELHI_WIND NEWDELHI_PRES NEWDELHI_CI NEWDELHI_DP NEWDELHI_POCI REUNION_LAT REUNION_LON REUNION_TYPE REUNION_WIND REUNION_PRES REUNION_TNUM REUNION_CI REUNION_RMW REUNION_R34_NE REUNION_R34_SE REUNION_R34_SW REUNION_R34_NW REUNION_R50_NE REUNION_R50_SE REUNION_R50_SW REUNION_R50_NW REUNION_R64_NE REUNION_R64_SE REUNION_R64_SW REUNION_R64_NW BOM_LAT BOM_LON BOM_TYPE BOM_WIND BOM_PRES BOM_TNUM BOM_CI BOM_RMW BOM_R34_NE BOM_R34_SE BOM_R34_SW BOM_R34_NW BOM_R50_NE BOM_R50_SE BOM_R50_SW BOM_R50_NW BOM_R64_NE BOM_R64_SE BOM_R64_SW BOM_R64_NW BOM_ROCI BOM_POCI BOM_EYE BOM_POS_METHOD BOM_PRES_METHOD NADI_LAT NADI_LON NADI_CAT NADI_WIND NADI_PRES WELLINGTON_LAT WELLINGTON_LON WELLINGTON_WIND WELLINGTON_PRES DS824_LAT DS824_LON DS824_STAGE DS824_WIND DS824_PRES TD9636_LAT TD9636_LON TD9636_STAGE TD9636_WIND TD9636_PRES TD9635_LAT TD9635_LON TD9635_WIND TD9635_PRES TD9635_ROCI NEUMANN_LAT NEUMANN_LON NEUMANN_CLASS NEUMANN_WIND NEUMANN_PRES MLC_LAT MLC_LON MLC_CLASS MLC_WIND MLC_PRES USA_GUST BOM_GUST BOM_GUST_PER REUNION_GUST REUNION_GUST_PER USA_SEAHGT USA_SEARAD_NE USA_SEARAD_SE USA_SEARAD_SW USA_SEARAD_NW STORM_SPEED STORM_DIR
1982091S03159 1982 24 SP EA BERNIE 1982-03-31 18:00:00 TS -3.20000 159.200 main 481 410 O_________O_O_ jtwc_sh SH251982 -3.20000 159.200 20 -1 -3.20000 159.200 1 20 -3.20000 159.200 TC 20 14 217
1982091S03159 1982 24 SP EA BERNIE 1982-03-31 21:00:00 TS -3.74949 158.787 main 410 330 P_________P_P_ SH251982 -3.76006 158.773 20 -1 -3.72833 158.816 1 21 -3.76006 158.773 TC 20 14 214
1982091S03159 1982 24 SP EA BERNIE 1982-04-01 00:00:00 TS -4.35659 158.410 main 320 275 O_______O_P_O_ jtwc_sh SH251982 -4.30000 158.400 20 -1 -5.00000 158.300 30 997 -4.25529 158.466 1 22 -4.30000 158.400 TC 20 14 204
1982091S03159 1982 24 SP EA BERNIE 1982-04-01 02:00:00 TS -4.78400 158.324 30 995 bom main 275 256 P_____O_P_P_P_ SH251982 -4.64121 158.208 21 -1 -5.80000 159.500 20 30 995 2.50000 -5.20479 158.314 30 997 -4.60518 158.267 1 23 -4.64121 158.208 TC 21 45 45 13 186
1982091S03159 1982 24 SP EA BERNIE 1982-04-01 03:00:00 TS -5.01803 158.335 main 256 212 P_____P_P_P_P_ SH251982 -4.80747 158.133 22 -1 -5.90253 159.473 20 30 995 -5.30783 158.320 30 997 -4.77957 158.182 1 23 -4.80747 158.133 TC 22 11 184
1982091S03159 1982 24 SP EA BERNIE 1982-04-01 06:00:00 TS -5.51000 158.291 30 995 bom main 212 182 O_____O_P_O_O_ jtwc_sh SH251982 -5.30000 158.000 25 -1 -6.20000 159.400 20 30 995 2.50000 -5.62252 158.332 30 997 -5.30000 158.000 1 25 -5.30000 158.000 TC 25 45 45 10 181
1982091S03159 1982 24 SP EA BERNIE 1982-04-01 09:00:00 TS -5.96897 158.328 main 174 134 P_____P_P_P_P_ SH251982 -5.79999 158.012 25 -1 -6.47872 159.345 20 30 995 -5.95095 158.328 30 997 -5.81518 157.941 1 26 -5.79999 158.012 TC 25 9 176
1982091S03159 1982 24 SP EA BERNIE 1982-04-01 12:00:00 TS -6.40447 158.356 30 995 bom main 134 90 O_____O_O_P_O_ jtwc_sh SH251982 -6.30000 158.100 25 -1 -6.80000 159.300 20 30 995 2.50000 -6.30000 158.300 30 997 -6.32236 157.980 1 27 -6.30000 158.100 TC 25 45 45 9 178
1982091S03159 1982 24 SP EA BERNIE 1982-04-01 15:00:00 TS -6.86523 158.374 main 79 35 P_____P_P_P_P_ SH251982 -6.80000 158.143 27 -1 -7.23499 159.265 20 32 992 -6.67282 158.243 32 995 -6.81837 158.079 1 28 -6.80000 158.143 TC 27 9 178
1982091S03159 1982 24 SP EA BERNIE 1982-04-01 18:00:00 TS -7.33150 158.393 35 990 bom main 35 11 O_____O_P_O_O_ jtwc_sh SH251982 -7.30000 158.200 30 -1 -7.70000 159.200 30 35 990 3.00000 -7.05751 158.165 35 993 -7.30000 158.200 1 30 -7.30000 158.200 TC 30 49 49 9 178
1982091S03159 1982 24 SP EA BERNIE 1982-04-01 21:00:00 TS -7.79756 158.407 main 22 22 P_____P_P_P_P_ SH251982 -7.81500 158.292 30 -1 -8.12250 159.065 30 37 990 -7.43845 158.080 37 991 -7.79685 158.306 1 31 -7.81500 158.292 TC 30 9 178
1982091S03159 1982 24 SP EA BERNIE 1982-04-02 00:00:00 TS -8.23499 158.424 40 990 bom main 49 49 O_____O_O_P_O_ jtwc_sh SH251982 -8.30000 158.400 30 -1 -8.50000 158.900 30 40 990 3.00000 -7.80000 158.000 40 990 -8.27498 158.422 1 32 -8.30000 158.400 TC 30 55 55 8 178
1982091S03159 1982 24 SP EA BERNIE 1982-04-02 03:00:00 TS -8.62393 158.449 main 55 55 P_____P_P_P_P_ SH251982 -8.73000 158.515 32 -1 -8.82250 158.742 30 42 989 -8.12154 157.947 41 989 -8.71562 158.528 1 33 -8.73000 158.515 TC 32 7 177
1982091S03159 1982 24 SP EA BERNIE 1982-04-02 06:00:00 TS -8.96449 158.460 45 989 bom main 79 79 O_____O_P_O_O_ jtwc_sh SH251982 -9.10000 158.600 35 0 -9.10000 158.600 30 45 989 3.00000 -8.42247 157.900 42 988 -9.10000 158.600 2 35 -9.10000 158.600 TC 35 64 64 7 0
1982091S03159 1982 24 SP EA BERNIE 1982-04-02 09:00:00 TS -9.27054 158.442 main 95 95 P_____P_P_P_P_ SH251982 -9.42999 158.623 35 0 -9.36499 158.492 30 47 987 -8.71217 157.853 43 987 -9.41557 158.619 2 36 -9.42999 158.623 TC 35 6 186
1982091S03159 1982 24 SP EA BERNIE 1982-04-02 12:00:00 TS -9.53499 158.401 50 985 bom main 114 114 O_____O_O_P_O_ jtwc_sh SH251982 -9.70000 158.600 35 0 -9.60000 158.400 30 50 985 3.50000 -9.00000 157.800 45 987 -9.67493 158.603 2 37 -9.70000 158.600 TC 35 69 69 5 191
1982091S03159 1982 24 SP EA BERNIE 1982-04-02 15:00:00 TS -9.77162 158.339 main 141 141 P_____P_P_P_P_ SH251982 -9.91500 158.558 37 0 -9.81500 158.292 30 50 985 -9.31625 157.728 46 986 -9.89683 158.560 2 38 -9.91500 158.558 TC 37 5 196
1982091S03159 1982 24 SP EA BERNIE 1982-04-02 18:00:00 TS -9.98600 158.270 50 985 bom main 153 153 O_____O_P_O_O_ jtwc_sh SH251982 -10.1000 158.500 40 0 -10.0000 158.200 30 50 985 3.50000 -9.63000 157.650 47 986 -10.1000 158.500 2 40 -10.1000 158.500 TC 40 69 69 4 196
1982091S03159 1982 24 SP EA BERNIE 1982-04-02 21:00:00 TS -10.1993 158.215 main 172 172 P_____P_P_P_P_ SH251982 -10.3000 158.457 42 0 -10.1575 158.142 30 50 985 -9.92875 157.572 48 985 -10.3103 158.447 2 42 -10.3000 158.457 TC 42 4 195
1982091S03159 1982 24 SP EA BERNIE 1982-04-03 00:00:00 TS -10.4015 158.156 50 985 bom main 183 183 O_____O_O_P_O_ jtwc_sh SH251982 -10.5000 158.400 45 0 -10.3000 158.100 30 50 985 3.50000 -10.2000 157.500 50 985 -10.5075 158.380 2 45 -10.5000 158.400 TC 45 69 69 4 199
1982091S03159 1982 24 SP EA BERNIE 1982-04-03 03:00:00 TS -10.5928 158.083 main 205 205 P_____P_P_P_P_ SH251982 -10.7000 158.307 47 0 -10.4425 158.057 30 50 983 -10.4206 157.447 52 982 -10.7009 158.297 2 47 -10.7000 158.307 TC 47 4 202
1982091S03159 1982 24 SP EA BERNIE 1982-04-03 06:00:00 TS -10.7830 158.000 50 982 bom main 226 226 O_____O_P_O_O_ jtwc_sh SH251982 -10.9000 158.200 50 0 -10.6000 158.000 30 50 982 3.50000 -10.6150 157.400 55 980 -10.9000 158.200 2 50 -10.9000 158.200 TC 50 69 69 4 203
1982091S03159 1982 24 SP EA BERNIE 1982-04-03 09:00:00 TS -10.9731 157.915 main 247 247 P_____P_P_P_P_ SH251982 -11.0925 158.107 52 0 -10.7850 157.915 30 52 981 -10.8019 157.353 57 977 -11.0934 158.093 2 52 -11.0925 158.107 TC 52 4 204
1982091S03159 1982 24 SP EA BERNIE 1982-04-03 12:00:00 TS -11.1795 157.814 55 980 bom main 269 269 O_____O_O_P_O_ jtwc_sh SH251982 -11.3000 158.000 55 0 -11.0000 157.800 30 55 980 4.00000 -11.0000 157.300 60 975 -11.2975 157.972 2 55 -11.3000 158.000 TC 55 75 75 5 207
1982091S03159 1982 24 SP EA BERNIE 1982-04-03 15:00:00 TS -11.4073 157.688 main 291 291 P_____P_P_P_P_ SH251982 -11.5350 157.857 57 0 -11.2275 157.650 30 57 980 -11.2113 157.236 62 972 -11.5278 157.840 2 57 -11.5350 157.857 TC 57 6 208
1982091S03159 1982 24 SP EA BERNIE 1982-04-03 18:00:00 TS -11.6680 157.553 60 980 bom main 321 321 O_____O_P_O_O_ jtwc_sh SH251982 -11.8000 157.700 60 0 -11.5000 157.500 30 60 980 4.00000 -11.4400 157.165 65 970 -11.8000 157.700 2 60 -11.8000 157.700 TC 60 84 84 6 205
1982091S03159 1982 24 SP EA BERNIE 1982-04-03 21:00:00 TS -11.9511 157.428 main 359 359 P_____P_P_P_P_ SH251982 -12.0700 157.550 62 0 -11.8050 157.400 30 62 980 -11.6988 157.086 67 967 -12.1116 157.553 2 62 -12.0700 157.550 TC 62 7 202
1982091S03159 1982 24 SP EA BERNIE 1982-04-04 00:00:00 TS -12.2935 157.300 65 980 bom main 391 391 O_____O_O_P_O_ jtwc_sh SH251982 -12.4000 157.400 65 1 -12.2000 157.300 30 65 980 4.50000 -12.0000 157.000 70 965 -12.4676 157.400 2 65 -12.4000 157.400 TC 65 89 89 8 199
1982091S03159 1982 24 SP EA BERNIE 1982-04-04 03:00:00 TS -12.7074 157.163 main 431 431 P_____P_P_P_P_ SH251982 -12.8200 157.250 67 1 -12.7200 157.165 30 67 979 -12.3123 156.903 72 962 -12.8647 157.247 2 67 -12.8200 157.250 TC 67 9 197
1982091S03159 1982 24 SP EA BERNIE 1982-04-04 06:00:00 TS -13.1745 157.020 70 978 bom main 488 488 O_____O_P_O_O_ jtwc_sh SH251982 -13.3000 157.100 70 1 -13.3000 157.000 30 70 978 4.50000 -12.6727 156.800 75 960 -13.3000 157.100 4 70 -13.3000 157.100 TC 70 99 99 10 197
1982091S03159 1982 24 SP EA BERNIE 1982-04-04 09:00:00 TS -13.6567 156.863 main 539 539 P_____P_P_P_P_ SH251982 -13.7925 156.943 72 1 -13.8500 156.785 30 75 976 -13.0967 156.697 77 957 -13.7519 156.948 4 72 -13.7925 156.943 TC 72 10 196
1982091S03159 1982 24 SP EA BERNIE 1982-04-04 12:00:00 TS -14.1680 156.721 80 975 bom main 597 597 O_____O_O_P_O_ jtwc_sh SH251982 -14.3000 156.800 75 1 -14.4000 156.600 40 80 975 5.00000 -13.6000 156.600 80 955 -14.2401 156.805 4 75 -14.3000 156.800 TC 75 110 110 11 193
1982091S03159 1982 24 SP EA BERNIE 1982-04-04 15:00:00 TS -14.6958 156.615 main 649 649 P_____P_P_P_P_ SH251982 -14.7850 156.685 77 1 -14.9425 156.527 40 85 972 -14.2082 156.490 82 951 -14.7582 156.685 4 77 -14.7850 156.685 TC 77 11 189
1982091S03159 1982 24 SP EA BERNIE 1982-04-04 18:00:00 TS -15.2580 156.538 90 970 bom main 712 712 O_____O_P_O_O_ jtwc_sh SH251982 -15.3000 156.600 80 1 -15.5000 156.500 40 90 970 5.50000 -14.8901 156.391 85 947 -15.3000 156.600 4 80 -15.3000 156.600 TC 80 124 124 12 187
1982091S03159 1982 24 SP EA BERNIE 1982-04-04 21:00:00 TS -15.8728 156.466 main 771 771 P_____P_P_P_P_ SH251982 -15.8925 156.528 82 1 -16.1075 156.428 40 92 967 -15.6020 156.321 87 943 -15.8695 156.528 4 82 -15.8925 156.528 TC 82 12 185
1982091S03159 1982 24 SP EA BERNIE 1982-04-05 00:00:00 TS -16.4915 156.439 95 965 bom main 835 835 O_____O_O_P_O_ jtwc_sh SH251982 -16.5000 156.500 85 2 -16.7000 156.400 40 95 965 5.50000 -16.3000 156.300 90 940 -16.4573 156.496 4 85 -16.5000 156.500 TC 85 135 135 12 0
1982091S03159 1982 24 SP EA BERNIE 1982-04-05 03:00:00 TS -17.0703 156.462 main 848 808 P_____P_P_P_P_ SH251982 -17.0650 156.520 87 2 -17.2224 156.448 40 97 962 -16.9577 156.305 92 936 -17.0414 156.516 4 87 -17.0650 156.520 TC 87 11 174
1982091S03159 1982 24 SP EA BERNIE 1982-04-05 06:00:00 TS -17.6179 156.553 100 960 bom main 816 786 O_____O_P_O_O_ jtwc_sh SH251982 -17.6000 156.600 90 2 -17.7000 156.600 40 100 960 6.00000 -17.5894 156.365 95 932 -17.6000 156.600 4 90 -17.6000 156.600 TC 90 139 139 11 168
1982091S03159 1982 24 SP EA BERNIE 1982-04-05 09:00:00 TS -18.1359 156.704 main 787 768 P_____P_P_P_P_ SH251982 -18.1149 156.713 92 2 -18.1576 156.870 40 100 957 -18.1764 156.493 97 928 -18.1157 156.732 4 91 -18.1149 156.713 TC 92 11 161
1982091S03159 1982 24 SP EA BERNIE 1982-04-05 12:00:00 TS -18.6204 156.926 100 955 bom main 768 724 O_____O_O_P_O_ jtwc_sh SH251982 -18.6000 156.900 95 2 -18.6000 157.200 40 100 955 6.00000 -18.7000 156.700 100 925 -18.6021 156.930 4 92 -18.6000 156.900 TC 95 139 139 11 153
1982091S03159 1982 24 SP EA BERNIE 1982-04-05 15:00:00 TS -19.0773 157.200 main 724 685 P_____P_P_P_P_ SH251982 -19.0650 157.163 95 2 -19.0499 157.493 40 100 952 -19.1439 156.992 97 928 -19.0625 157.188 4 93 -19.0650 157.163 TC 97 11 147
1982091S03159 1982 24 SP EA BERNIE 1982-04-05 18:00:00 TS -19.5051 157.532 100 950 bom main 685 638 O_____O_P_O_O_ jtwc_sh SH251982 -19.5000 157.500 95 2 -19.5000 157.800 40 100 950 6.00000 -19.5253 157.360 95 932 -19.5000 157.500 4 95 -19.5000 157.500 TC 100 139 139 11 141
1982091S03159 1982 24 SP EA BERNIE 1982-04-05 21:00:00 TS -19.9134 157.908 main 638 594 P_____P_P_P_P_ SH251982 -19.9075 157.885 92 2 -19.9575 158.150 40 100 947 -19.8689 157.773 92 936 -19.9257 157.846 4 92 -19.9075 157.885 TC 95 11 138
1982091S03159 1982 24 SP EA BERNIE 1982-04-06 00:00:00 TS -20.3060 158.308 100 945 bom main 594 553 O_____O_O_P_O_ jtwc_sh SH251982 -20.3000 158.300 90 2 -20.4000 158.500 40 100 945 6.00000 -20.2000 158.200 90 940 -20.3301 158.240 4 90 -20.3000 158.300 TC 90 139 139 11 137
1982091S03159 1982 24 SP EA BERNIE 1982-04-06 03:00:00 TS -20.6980 158.688 main 553 517 P_____P_P_P_P_ SH251982 -20.7074 158.700 87 2 -20.8073 158.793 40 95 947 -20.5487 158.582 87 943 -20.7194 158.665 4 87 -20.7074 158.700 TC 87 11 137
1982091S03159 1982 24 SP EA BERNIE 1982-04-06 06:00:00 TS -21.0784 159.074 90 950 bom main 517 490 O_____O_P_O_O_ jtwc_sh SH251982 -21.1000 159.100 85 2 -21.2000 159.100 40 90 950 5.50000 -20.8919 158.971 85 947 -21.1000 159.100 4 85 -21.1000 159.100 TC 85 124 124 10 136
1982091S03159 1982 24 SP EA BERNIE 1982-04-06 09:00:00 TS -21.4416 159.466 main 483 457 P_____P_P_P_P_ SH251982 -21.4498 159.493 82 1 -21.5999 159.478 40 90 952 -21.2392 159.375 82 951 -21.4692 159.491 4 82 -21.4498 159.493 TC 82 10 134
1982091S03159 1982 24 SP EA BERNIE 1982-04-06 12:00:00 TS -21.8068 159.878 90 955 bom main 457 433 O_____O_O_P_O_ jtwc_sh SH251982 -21.8000 159.900 80 1 -22.0000 159.900 40 90 955 5.50000 -21.6000 159.800 80 955 -21.8338 159.892 4 80 -21.8000 159.900 TC 80 124 124 11 134
1982091S03159 1982 24 SP MM BERNIE 1982-04-06 15:00:00 TS -22.1894 160.304 main 438 420 P_____P_P_P_P_ SH251982 -22.1848 160.328 77 1 -22.4148 160.328 40 90 957 -21.9562 160.215 77 957 -22.2065 160.323 4 77 -22.1848 160.328 TC 77 11 133
1982091S03159 1982 24 SP MM BERNIE 1982-04-06 18:00:00 TS -22.5749 160.770 main 419 403 O_____O_P_O_O_ jtwc_sh SH251982 -22.6000 160.800 75 1 -22.8000 160.800 40 90 960 5.50000 -22.3309 160.656 75 960 -22.6000 160.800 4 75 -22.6000 160.800 TC 75 124 124 12 131
1982091S03159 1982 24 SP MM BERNIE 1982-04-06 21:00:00 TS -22.9798 161.285 main 403 382 P_____P_P_P_P_ SH251982 -23.0423 161.320 72 1 -23.1205 161.332 40 85 962 -22.7402 161.144 72 962 -23.0240 161.330 4 72 -23.0423 161.320 TC 72 13 130
1982091S03159 1982 24 SP MM BERNIE 1982-04-07 00:00:00 TS -23.4163 161.856 70 965 wellington main 380 370 O_____O_O_P_O_ jtwc_sh SH251982 -23.5000 161.900 70 1 -23.4000 161.900 40 80 965 5.00000 -23.2000 161.700 70 965 -23.4693 161.911 4 70 -23.5000 161.900 TC 70 110 110 14 130
1982091S03159 1982 24 SP MM BERNIE 1982-04-07 03:00:00 TS -23.8886 162.484 main 372 365 P_______P_P_P_ SH251982 -23.9498 162.528 67 1 40 -23.7249 162.345 67 967 -23.9299 162.537 4 67 -23.9498 162.528 TC 67 15 129
1982091S03159 1982 24 SP MM BERNIE 1982-04-07 06:00:00 TS -24.3744 163.165 main 377 377 O_______P_O_O_ jtwc_sh SH251982 -24.4000 163.200 65 1 -24.2977 163.060 65 970 -24.4000 163.200 4 65 -24.4000 163.200 TC 65 16 128
1982091S03159 1982 24 SP MM BERNIE 1982-04-07 09:00:00 TS -24.8608 163.863 main 384 378 P_______P_P_P_ SH251982 -24.8422 163.886 62 0 -24.8965 163.821 62 972 -24.8624 163.859 4 62 -24.8422 163.886 TC 62 16 127
1982091S03159 1982 24 SP MM BERNIE 1982-04-07 12:00:00 TS -25.3582 164.589 60 975 wellington main 391 387 O_______O_P_O_ jtwc_sh SH251982 -25.3000 164.600 60 0 -25.5000 164.600 60 975 -25.3328 164.556 4 60 -25.3000 164.600 TC 60 17 127
1982091S03159 1982 24 SP MM BERNIE 1982-04-07 15:00:00 TS -25.8611 165.323 main 416 412 P_______P_P_P_ SH251982 -25.7920 165.328 57 0 -26.0487 165.337 58 976 -25.8118 165.300 4 57 -25.7920 165.328 TC 57 17 127
1982091S03159 1982 24 SP MM BERNIE 1982-04-07 18:00:00 TS -26.3755 166.097 main 451 449 O_______P_O_O_ jtwc_sh SH251982 -26.3000 166.100 55 0 -26.6022 166.089 57 977 -26.3000 166.100 2 55 -26.3000 166.100 TC 55 18 126
1982091S03159 1982 24 SP MM BERNIE 1982-04-07 21:00:00 TS -26.8853 166.910 main 502 502 P_______P_P_P_ SH251982 -26.7993 166.913 52 0 -27.1796 166.872 56 978 -26.7629 166.939 2 52 -26.7993 166.913 TC 52 18 124
1982091S03159 1982 24 SP MM BERNIE 1982-04-08 00:00:00 TS -27.4094 167.784 55 980 wellington main 565 565 O_______O_P_O_ jtwc_sh SH251982 -27.3000 167.800 50 0 -27.8000 167.700 55 980 -27.2375 167.837 2 50 -27.3000 167.800 TC 50 19 123
1982091S03159 1982 24 SP MM BERNIE 1982-04-08 03:00:00 TS -27.9462 168.727 main 640 640 P_______P_P_P_ SH251982 -27.7846 168.771 47 0 -28.4722 168.574 53 981 -27.7433 168.791 2 47 -27.7846 168.771 TC 47 20 123
1982091S03159 1982 24 SP MM BERNIE 1982-04-08 06:00:00 TS -28.5219 169.725 main 723 628 O_______P_O_O_ jtwc_sh SH251982 -28.3000 169.800 45 0 -29.1875 169.500 52 982 -28.3000 169.800 2 45 -28.3000 169.800 TC 45 21 124
1982091S03159 1982 24 SP MM BERNIE 1982-04-08 09:00:00 TS -29.1336 170.740 main 628 530 P_______P_P_P_ SH251982 -28.8614 170.822 42 0 -29.9340 170.476 51 983 -28.8777 170.838 2 43 -28.8614 170.822 TC 42 22 125
1982091S03159 1982 24 SP MM BERNIE 1982-04-08 12:00:00 TS -29.8028 171.809 50 985 wellington main 529 446 O_______O_P_O_ jtwc_sh SH251982 -29.5000 171.900 40 0 -30.7000 171.500 50 985 -29.5113 171.934 2 42 -29.5000 171.900 TC 40 24 126
1982091S03159 1982 24 SP MM BERNIE 1982-04-08 15:00:00 TS -30.5202 172.947 main 446 371 P_______P_P_P_ SH251982 -30.2116 173.064 40 0 -31.4432 172.572 50 985 -30.2142 173.088 2 41 -30.2116 173.064 TC 40 25 127
1982091S03159 1982 24 SP MM BERNIE 1982-04-08 18:00:00 TS -31.3008 174.148 main 371 342 O_______P_O_O_ jtwc_sh SH251982 -31.0000 174.300 40 0 -32.2033 173.691 50 985 -31.0000 174.300 2 40 -31.0000 174.300 TC 40 26 127
1982091S03159 1982 24 SP MM BERNIE 1982-04-08 21:00:00 TS -32.1175 175.389 main 348 326 P_______P_P_P_ SH251982 -31.8038 175.573 37 0 -32.9866 174.839 50 985 -31.8757 175.571 2 37 -31.8038 175.573 TC 37 27 130
1982091S03159 1982 24 SP MM BERNIE 1982-04-09 00:00:00 TS -33.0662 176.623 50 985 wellington main 323 323 O_______O_P_O_ jtwc_sh SH251982 -32.7000 176.900 35 0 -33.8000 176.000 50 985 -32.8202 176.899 2 35 -32.7000 176.900 TC 35 29 134
1982091S03159 1982 24 SP MM BERNIE 1982-04-09 03:00:00 TS -34.1330 177.854 main 350 272 P_______P_P_P_ SH251982 -33.7182 178.277 32 -1 -34.7119 177.219 50 985 -33.8048 178.278 2 32 -33.7182 178.277 TC 32 30 139
1982091S03159 1982 24 SP MM BERNIE 1982-04-09 06:00:00 TS -35.2811 178.982 main 263 160 O_______P_O_O_ jtwc_sh SH251982 -34.8000 179.700 30 -1 -35.6419 178.444 50 985 -34.8000 179.700 1 30 -34.8000 179.700 TC 30 28 149
1982091S03159 1982 24 SP MM BERNIE 1982-04-09 09:00:00 NR -36.5255 179.624 main 160 152 ________P_____ SH251982 -1 -36.5255 179.624 50 985 1 TC 24 146
1982091S03159 1982 24 SP MM BERNIE 1982-04-09 12:00:00 NR -37.3000 180.700 50 985 wellington main 190 190 ________O_____ -1 -37.3000 -179.300 50 985 1 21 131
1982091S03159 1982 24 SP MM BERNIE 1982-04-09 15:00:00 NR -37.9131 181.637 main 263 263 ________P_____ -1 -37.9131 -178.363 50 985 1 18 129
1982091S03159 1982 24 SP MM BERNIE 1982-04-09 18:00:00 NR -38.4162 182.450 main 340 340 ________P_____ -1 -38.4162 -177.550 50 985 15 128
1982091S03159 1982 24 SP MM BERNIE 1982-04-09 21:00:00 NR -38.8365 183.162 main 418 418 ________P_____ -1 -38.8365 -176.838 50 985 13 127
1982091S03159 1982 24 SP MM BERNIE 1982-04-10 00:00:00 NR -39.2000 183.800 50 985 wellington main 481 481 ________O_____ -1 -39.2000 -176.200 50 985 12 126
1982091S03159 1982 24 SP MM BERNIE 1982-04-10 03:00:00 NR -39.5687 184.447 main 539 539 ________P_____ -1 -39.5687 -175.553 50 985 12 126
1982091S03159 1982 24 SP MM BERNIE 1982-04-10 06:00:00 NR -39.8878 185.024 main 596 596 ________P_____ -1 -39.8878 -174.976 50 985 10 125
1982091S03159 1982 24 SP MM BERNIE 1982-04-10 09:00:00 NR -40.1631 185.539 main 645 645 ________P_____ -1 -40.1631 -174.461 50 985 9 124
1982091S03159 1982 24 SP MM BERNIE 1982-04-10 12:00:00 NR -40.4000 186.000 50 985 wellington main 691 691 ________O_____ -1 -40.4000 -174.000 50 985 8 122
1982091S03159 1982 24 SP MM BERNIE 1982-04-10 15:00:00 NR -40.5765 186.406 main 730 730 ________P_____ -1 -40.5765 -173.594 50 985 7 119
1982091S03159 1982 24 SP MM BERNIE 1982-04-10 18:00:00 NR -40.7249 186.764 main 765 765 ________P_____ -1 -40.7249 -173.236 50 985 6 120
1982091S03159 1982 24 SP MM BERNIE 1982-04-10 21:00:00 NR -40.8859 187.115 main 796 796 ________P_____ -1 -40.8859 -172.885 50 985 7 124
1982091S03159 1982 24 SP MM BERNIE 1982-04-11 00:00:00 NR -41.1000 187.500 50 985 wellington main 834 834 ________O_____ -1 -41.1000 -172.500 50 985 9 126
1982091S03159 1982 24 SP MM BERNIE 1982-04-11 03:00:00 NR -41.4030 188.043 main 883 883 ________P_____ -1 -41.4030 -171.957 48 985 11 128
1982091S03159 1982 24 SP MM BERNIE 1982-04-11 06:00:00 NR -41.7626 188.620 main 942 942 ________P_____ -1 -41.7626 -171.380 47 986 11 132
1982091S03159 1982 24 SP MM BERNIE 1982-04-11 09:00:00 NR -42.1656 189.162 main 1001 1001 ________P_____ -1 -42.1656 -170.838 46 986 11 139
1982091S03159 1982 24 SP MM BERNIE 1982-04-11 12:00:00 NR -42.6000 189.600 45 987 wellington main 1044 1044 ________O_____ -1 -42.6000 -170.400 45 987 11 152
1982091S03159 1982 24 SP MM BERNIE 1982-04-11 15:00:00 NR -43.0975 189.847 main 1077 1077 ________P_____ -1 -43.0975 -170.153 45 987 11 165
1982091S03159 1982 24 SP MM BERNIE 1982-04-11 18:00:00 NR -43.6157 189.981 main 1111 1111 ________P_____ -1 -43.6157 -170.019 45 987 10 171
1982091S03159 1982 24 SP MM BERNIE 1982-04-11 21:00:00 NR -44.1012 190.050 main 1133 1133 ________P_____ -1 -44.1012 -169.950 45 987 9 174
1982091S03159 1982 24 SP MM BERNIE 1982-04-12 00:00:00 NR -44.5000 190.100 45 987 wellington main 1158 1158 ________O_____ -1 -44.5000 -169.900 45 987 7 175
1982091S03159 1982 24 SP MM BERNIE 1982-04-12 03:00:00 NR -44.8313 190.120 main 1173 1173 ________P_____ -1 -44.8313 -169.880 43 987 6 177
1982091S03159 1982 24 SP MM BERNIE 1982-04-12 06:00:00 NR -45.0599 190.146 main 1189 1189 ________P_____ -1 -45.0599 -169.854 42 988 3 166
1982091S03159 1982 24 SP MM BERNIE 1982-04-12 09:00:00 NR -45.1586 190.248 main 1201 1201 ________P_____ -1 -45.1586 -169.752 41 989 3 99
1982091S03159 1982 24 SP MM BERNIE 1982-04-12 12:00:00 NR -45.1000 190.500 40 990 wellington main 1216 1216 ________O_____ -1 -45.1000 -169.500 40 990 7 61
1982091S03159 1982 24 SP MM BERNIE 1982-04-12 15:00:00 NR -44.8379 191.065 main 1244 1244 ________P_____ -1 -44.8379 -168.935 40 990 11 53
1982091S03159 1982 24 SP MM BERNIE 1982-04-12 18:00:00 NR -44.4259 191.758 main 1277 1277 ________P_____ -1 -44.4259 -168.242 40 990 13 48
1982091S03159 1982 24 SP MM BERNIE 1982-04-12 21:00:00 NR -43.9503 192.444 main 1307 1307 ________P_____ -1 -43.9503 -167.556 40 990 13 44
1982091S03159 1982 24 SP MM BERNIE 1982-04-13 00:00:00 NR -43.5000 193.000 40 990 wellington main 1337 1337 ________O_____ -1 -43.5000 -167.000 40 990 9 43
1982091S03159 1982 24 SP MM BERNIE 1982-04-13 03:00:00 NR -43.2656 193.327 main 1354 1354 ________P_____ -1 -43.2656 -166.673 38 991 6 40
1982091S03159 1982 24 SP MM BERNIE 1982-04-13 06:00:00 NR -43.0648 193.510 main 1365 1363 ________P_____ -1 -43.0648 -166.490 37 992 5 22
1982091S03159 1982 24 SP MM BERNIE 1982-04-13 09:00:00 NR -42.8317 193.564 main 1366 1352 ________P_____ -1 -42.8317 -166.436 36 993 6 358
1982091S03159 1982 24 SP MM BERNIE 1982-04-13 12:00:00 NR -42.5000 193.500 35 995 wellington main 1352 1327 ________O_____ -1 -42.5000 -166.500 35 995 8 348
1982091S03159 1982 24 SP MM BERNIE 1982-04-13 15:00:00 NR -42.0208 193.334 main 1325 1298 ________P_____ -1 -42.0208 -166.666 33 995 11 345
1982091S03159 1982 24 SP MM BERNIE 1982-04-13 18:00:00 NR -41.4169 193.093 main 1296 1262 ________P_____ -1 -41.4169 -166.907 32 996 14 343
1982091S03159 1982 24 SP MM BERNIE 1982-04-13 21:00:00 NR -40.7295 192.806 main 1261 1225 ________P_____ -1 -40.7295 -167.194 31 996 15 342
1982091S03159 1982 24 SP MM BERNIE 1982-04-14 00:00:00 NR -40.0000 192.500 30 997 wellington main 1225 ________O_____ -1 -40.0000 -167.500 30 997 15 342

デジタル台風データ・検索

IBTrACS Databaseについて

本データベースは、米国NOAAが公開する1842年以降の世界の熱帯低気圧のベストトラックデータアーカイブInternational Best Track Archive for Climate Stewardship (IBTrACS)を、ウェブで閲覧しやすい形式に変換したものです。

最終更新日:2021-11-26